Airport Weather Around the Area


KLVN - Mpls/Airlake, Lakeville, MN, USA
Distance from station: S 5mi, 8km
Updated: Sun, 23-Apr-2017 12:11am CDT
Clear
Clear
 Wind from SW
Wind: SW 3 mph , 6 km/h
Temperature: 52°F , 11°C
Dew Point: 37°F , 3°C
Humidity: 58%
Barometer: 30.10 inHg , 1019.3 hPa
Clouds: Clear
Visibility: 10 miles , 16 km
2017/04/23 05:11 KLVN 230511Z AUTO 23003KT 10SM CLR 11/03 A3010 RMK AO2
KMSP - MSP International, Minneapolis, MN, USA
Distance from station: N 13mi, 20km
Updated: Sat, 22-Apr-2017 11:53pm CDT
Clear
Clear
 Wind from calm
Wind: Calm
Temperature: 55°F , 13°C
Dew Point: 36°F , 2°C
Humidity: 47%
Barometer: 30.09 inHg , 1019 hPa
Clouds: Clear
Visibility: 10 miles , 16 km
2017/04/23 04:53 KMSP 230453Z 00000KT 10SM CLR 13/02 A3009 RMK AO2 SLP190 T01330022
 
KSGS - South St Paul/Fleming Field, So. St. Paul, MN, USA
Distance from station: NE 14mi, 22km
Updated: Sun, 23-Apr-2017 12:14am CDT
Clear
Clear
 Wind from calm
Wind: Calm
Temperature: 50°F , 10°C
Dew Point: 39°F , 4°C
Humidity: 67%
Barometer: 30.09 inHg , 1019 hPa
Clouds: Clear
Visibility: 10 miles , 16 km
2017/04/23 05:14 KSGS 230514Z AUTO 00000KT 10SM CLR 10/04 A3009 RMK AO2 T00980040
KFCM - Mpls/Flying Cloud, Eden Prairie, MN, USA
Distance from station: NW 15mi, 24km
Updated: Sat, 22-Apr-2017 11:53pm CDT
Clear
Clear
 Wind from calm
Wind: Calm
Temperature: 54°F , 12°C
Dew Point: 34°F , 1°C
Humidity: 47%
Barometer: 30.08 inHg , 1018.6 hPa
Clouds: Clear
Visibility: 10 miles , 16 km
2017/04/23 04:53 KFCM 230453Z AUTO 00000KT 10SM CLR 12/01 A3008 RMK AO2 SLP188 T01220011
 
KSTP - St. Paul Downtown, St. Paul, MN, USA
Distance from station: NNE 18mi, 29km
Updated: Sat, 22-Apr-2017 11:53pm CDT
Clear
Clear
 Wind from calm
Wind: Calm
Temperature: 50°F , 10°C
Dew Point: 43°F , 6°C
Humidity: 76%
Barometer: 30.10 inHg , 1019.3 hPa
Clouds: Clear
Visibility: 10 miles , 16 km
2017/04/23 04:53 KSTP 230453Z AUTO 00000KT 10SM CLR 10/06 A3010 RMK AO2 SLP191 T01000061
KSYN - Stanton, Minnesota, USA
Distance from station: SE 18mi, 29km
Updated: Sun, 23-Apr-2017 12:14am CDT
Clear
Clear
 Wind from S
Wind: S 3 mph , 6 km/h
Temperature: 48°F , 9°C
Dew Point: 39°F , 4°C
Humidity: 71%
Barometer: 30.10 inHg , 1019.3 hPa
Clouds: Clear
Visibility: 10 miles , 16 km
2017/04/23 05:14 KSYN 230514Z AUTO 19003KT 10SM CLR 09/04 A3010 RMK AO2 T00910035
 
KMIC - Mlps/Crystal, MN, USA
Distance from station: NNW 26mi, 42km
Updated: Sat, 22-Apr-2017 11:53pm CDT
Clear
Clear
 Wind from calm
Wind: Calm
Temperature: 50°F , 10°C
Dew Point: 34°F , 1°C
Humidity: 54%
Barometer: 30.08 inHg , 1018.6 hPa
Clouds: Clear
Visibility: 8 miles , 13 km
2017/04/23 04:53 KMIC 230453Z AUTO 00000KT 8SM CLR 10/01 A3008 RMK AO2 SLP187 T01000011
KFBL - Faribault Municipal, MN, USA
Distance from station: S 27mi, 43km
Updated: Sun, 23-Apr-2017 12:14am CDT
Clear
Clear
 Wind from S
Wind: S 3 mph , 6 km/h
Temperature: 46°F , 8°C
Dew Point: 39°F , 4°C
Humidity: 76%
Barometer: 30.12 inHg , 1020 hPa
Clouds: Clear
Visibility: 10 miles , 16 km
2017/04/23 05:14 KFBL 230514Z AUTO 17003KT 10SM CLR 08/04 A3012 RMK AO2
 
K21D - Lake Elmo, MN, USA
Distance from station: NE 27mi, 44km
Updated: Sun, 23-Apr-2017 12:12am CDT
Clear
Clear
 Wind from calm
Wind: Calm
Temperature: 45°F , 7°C
Dew Point: 39°F , 4°C
Humidity: 81%
Barometer: 30.10 inHg , 1019.3 hPa
Clouds: Clear
Visibility: 10 miles , 16 km
2017/04/23 05:12 K21D 230512Z AUTO 00000KT 10SM CLR 07/04 A3010 RMK AO2
KANE - Anoka Co./Blaine, MN, USA
Distance from station: 0 30mi, 48km
Updated: Sat, 22-Apr-2017 11:55pm CDT
Clear
Clear
 Wind from SSW
Wind: SSW 5 mph , 7 km/h
Temperature: 54°F , 12°C
Dew Point: 36°F , 2°C
Humidity: 51%
Barometer: 30.08 inHg , 1018.6 hPa
Clouds: Clear
Visibility: 10 miles , 16 km
2017/04/23 04:55 KANE 230455Z AUTO 21004KT 10SM CLR 12/02 A3008 RMK AO2
 
KRGK - Red Wing, MN, USA
Distance from station: ESE 37mi, 60km
Updated: Sun, 23-Apr-2017 12:15am CDT
Clear
Clear
 Wind from calm
Wind: Calm
Temperature: 45°F , 7°C
Dew Point: 37°F , 3°C
Humidity: 76%
Barometer: 30.09 inHg , 1019 hPa
Clouds: Clear
Visibility: 10 miles , 16 km
2017/04/23 05:15 KRGK 230515Z AUTO 00000KT 10SM CLR 07/03 A3009 RMK AO2